Time;durP1;ratioP1;P1;durP2;ratioP2;P2;SDS_P1;SDS_P2;PMS_P1;PMS_P2;Temp;Humidity;BMP_temperature;BMP_pressure;BME280_temperature;BME280_humidity;BME280_pressure;Samples;Min_cycle;Max_cycle;Signal;HPM_P1;HPM_P2
2022/11/05 00:09:32;;;;;;;9.07;2.03;;;9.20;99.90;;;;;;5052233;28;20048;-65
2022/11/05 00:19:21;;;;;;;21.92;3.40;;;9.10;99.90;;;;;;5052524;28;19920;-66
2022/11/05 00:25:57;;;;;;;10.20;2.78;;;9.10;99.90;;;;;;5051317;28;20048;-66
2022/11/05 00:29:01;;;;;;;12.15;2.60;;;9.20;99.90;;;;;;5052208;28;20044;-66
2022/11/05 00:32:05;;;;;;;16.58;2.72;;;9.20;99.90;;;;;;5052002;28;20067;-65
2022/11/05 00:35:09;;;;;;;21.45;3.58;;;9.10;99.90;;;;;;5051909;28;20036;-65
2022/11/05 00:38:13;;;;;;;10.15;2.47;;;9.10;99.90;;;;;;5051920;28;20062;-65
2022/11/05 00:41:17;;;;;;;9.95;2.72;;;9.00;99.90;;;;;;5039712;28;20048;-65
2022/11/05 00:51:07;;;;;;;9.27;2.03;;;8.90;99.90;;;;;;5051780;28;19920;-65
2022/11/05 00:54:11;;;;;;;13.35;2.92;;;8.80;99.90;;;;;;5051636;28;20392;-65
2022/11/05 00:57:15;;;;;;;16.35;2.78;;;8.80;99.90;;;;;;5051800;28;20503;-65
2022/11/05 01:00:19;;;;;;;17.33;3.13;;;8.80;99.90;;;;;;5051721;28;20048;-65
2022/11/05 01:03:32;;;;;;;19.40;2.83;;;8.80;99.90;;;;;;5051549;28;20044;-66
2022/11/05 01:06:36;;;;;;;17.55;2.45;;;8.70;99.90;;;;;;5051514;28;20040;-66
2022/11/05 01:09:40;;;;;;;13.85;3.10;;;8.70;99.90;;;;;;5051434;28;20503;-65
2022/11/05 01:12:44;;;;;;;11.48;2.35;;;8.70;99.90;;;;;;5051241;28;20431;-65
2022/11/05 01:15:49;;;;;;;14.77;3.45;;;8.60;99.90;;;;;;5051148;28;20040;-66
2022/11/05 01:18:53;;;;;;;17.90;3.83;;;8.60;99.90;;;;;;5051484;28;20499;-66
2022/11/05 01:21:57;;;;;;;13.05;3.28;;;8.60;99.90;;;;;;5051472;28;20051;-65
2022/11/05 01:25:01;;;;;;;14.85;3.00;;;8.60;99.90;;;;;;5051054;28;20044;-65
2022/11/05 01:28:08;;;;;;;16.25;3.22;;;8.60;99.90;;;;;;5051483;28;20048;-65
2022/11/05 01:31:12;;;;;;;9.82;3.05;;;8.50;99.90;;;;;;5051147;28;20052;-65
2022/11/05 01:34:16;;;;;;;18.52;2.67;;;8.60;99.90;;;;;;5051164;28;20044;-66
2022/11/05 01:37:20;;;;;;;12.43;2.40;;;8.80;99.90;;;;;;5053040;28;20095;-66
2022/11/05 01:40:24;;;;;;;14.75;3.15;;;8.70;99.90;;;;;;5055297;28;20048;-66
2022/11/05 01:43:58;;;;;;;17.30;3.13;;;8.70;99.90;;;;;;5055210;28;20036;-65
2022/11/05 01:47:02;;;;;;;8.57;2.50;;;8.70;99.90;;;;;;5055153;28;20040;-66
2022/11/05 01:50:32;;;;;;;9.73;3.40;;;8.70;99.90;;;;;;5054916;28;20032;-65
2022/11/05 01:53:51;;;;;;;11.95;2.85;;;8.70;99.90;;;;;;5054792;28;20392;-66
2022/11/05 01:57:05;;;;;;;9.93;2.70;;;8.60;99.90;;;;;;5055103;28;20068;-66
2022/11/05 02:00:09;;;;;;;8.73;2.78;;;8.50;99.90;;;;;;5054924;28;20033;-66
2022/11/05 02:03:17;;;;;;;9.40;3.05;;;8.40;99.90;;;;;;5054350;28;20037;-66
2022/11/05 02:06:21;;;;;;;17.55;2.80;;;8.40;99.90;;;;;;5054812;28;20044;-65
2022/11/05 02:09:29;;;;;;;16.98;2.83;;;8.40;99.90;;;;;;5054653;28;20399;-65
2022/11/05 02:12:36;;;;;;;13.45;2.78;;;8.60;99.90;;;;;;5054463;28;20048;-65
2022/11/05 02:15:52;;;;;;;19.30;2.38;;;8.50;99.90;;;;;;5054162;28;20044;-66
2022/11/05 02:19:25;;;;;;;13.10;2.47;;;8.40;99.90;;;;;;5054566;28;20062;-66
2022/11/05 02:22:56;;;;;;;13.68;2.85;;;8.40;99.90;;;;;;5046719;28;20052;-66
2022/11/05 02:26:08;;;;;;;18.52;3.40;;;8.40;99.90;;;;;;5044336;28;20044;-66
2022/11/05 02:29:50;;;;;;;;;;;8.50;99.90;;;;;;5054616;28;20511;-65
2022/11/05 02:33:03;;;;;;;24.73;4.45;;;8.40;99.90;;;;;;4953597;29;20325;-65
2022/11/05 02:36:22;;;;;;;10.25;2.42;;;8.40;99.90;;;;;;4957671;28;20422;-66
2022/11/05 02:39:35;;;;;;;11.10;3.83;;;8.50;99.90;;;;;;5054169;28;20047;-65
2022/11/05 02:43:06;;;;;;;11.93;2.78;;;8.50;99.90;;;;;;5054009;28;20387;-65
2022/11/05 02:46:17;;;;;;;14.93;3.03;;;8.40;99.90;;;;;;5053722;28;20040;-65
2022/11/05 02:49:47;;;;;;;10.60;2.70;;;8.40;99.90;;;;;;5052633;28;20046;-65
2022/11/05 02:53:09;;;;;;;15.82;3.03;;;8.40;99.90;;;;;;5053796;28;20040;-65
2022/11/05 02:56:19;;;;;;;8.60;2.67;;;8.40;99.90;;;;;;5053748;28;20503;-65
2022/11/05 02:59:23;;;;;;;12.75;2.80;;;8.30;99.90;;;;;;5053820;28;20037;-65
2022/11/05 03:02:28;;;;;;;12.77;2.40;;;8.30;99.90;;;;;;5053739;28;20492;-66
2022/11/05 03:05:46;;;;;;;14.30;2.72;;;8.30;99.90;;;;;;5053575;28;20044;-66
2022/11/05 03:09:09;;;;;;;11.38;2.53;;;8.40;99.90;;;;;;5053914;28;20351;-65
2022/11/05 03:12:40;;;;;;;10.63;3.05;;;8.30;99.90;;;;;;5053418;28;20048;-65
2022/11/05 03:15:59;;;;;;;11.50;2.70;;;8.30;99.90;;;;;;5053397;28;20047;-65
2022/11/05 03:19:29;;;;;;;12.07;2.80;;;8.30;99.90;;;;;;5057374;28;20507;-66
2022/11/05 03:22:40;;;;;;;13.02;3.28;;;8.30;99.90;;;;;;5053054;28;20052;-65
2022/11/05 03:26:28;;;;;;;9.73;2.83;;;8.30;99.90;;;;;;5053059;28;20052;-65
2022/11/05 03:29:46;;;;;;;23.23;4.20;;;8.40;99.90;;;;;;5053081;28;20506;-66
2022/11/05 03:32:59;;;;;;;13.80;2.92;;;8.50;99.90;;;;;;5052743;28;20503;-65
2022/11/05 03:36:09;;;;;;;13.10;3.38;;;8.50;99.90;;;;;;5053144;28;20055;-65
2022/11/05 03:39:21;;;;;;;11.45;3.15;;;8.60;99.90;;;;;;5053080;28;20060;-65
2022/11/05 03:42:29;;;;;;;11.75;3.30;;;8.60;99.90;;;;;;5053120;28;20052;-65
2022/11/05 03:45:45;;;;;;;15.15;4.57;;;8.60;99.90;;;;;;5052720;28;20048;-66
2022/11/05 03:48:52;;;;;;;16.73;3.88;;;8.60;99.90;;;;;;5052837;28;20052;-65
2022/11/05 03:52:09;;;;;;;18.83;4.25;;;8.60;99.90;;;;;;5052753;28;20047;-66
2022/11/05 03:55:14;;;;;;;19.80;5.63;;;8.60;99.90;;;;;;5052591;28;20040;-65
2022/11/05 03:58:20;;;;;;;16.13;4.40;;;8.60;99.90;;;;;;5052568;28;20048;-65
2022/11/05 04:01:24;;;;;;;12.05;5.40;;;8.70;99.90;;;;;;5052378;28;20043;-65
2022/11/05 04:04:28;;;;;;;14.13;6.22;;;8.70;99.90;;;;;;5052458;28;20048;-65
2022/11/05 04:14:17;;;;;;;19.13;9.77;;;9.00;99.90;;;;;;5052426;28;20048;-65
2022/11/05 04:17:21;;;;;;;22.10;10.50;;;9.20;99.90;;;;;;5051959;28;20051;-65
2022/11/05 04:27:10;;;;;;;17.52;10.68;;;9.50;99.90;;;;;;5051970;28;20044;-66
2022/11/05 04:30:20;;;;;;;25.38;11.75;;;9.60;99.90;;;;;;5052027;28;20048;-66
2022/11/05 04:33:24;;;;;;;21.40;12.48;;;10.00;99.90;;;;;;5051544;28;20044;-65
2022/11/05 04:36:28;;;;;;;18.63;11.52;;;9.90;99.90;;;;;;5051895;28;20064;-66
2022/11/05 04:39:32;;;;;;;20.67;12.40;;;10.10;99.90;;;;;;5051903;28;20051;-66
2022/11/05 04:42:36;;;;;;;19.83;12.10;;;10.10;99.90;;;;;;5039417;28;20391;-66
2022/11/05 04:45:40;;;;;;;21.10;12.45;;;10.10;99.90;;;;;;5051355;28;20063;-66
2022/11/05 04:48:44;;;;;;;21.80;11.68;;;10.10;99.90;;;;;;5052013;28;20530;-66
2022/11/05 04:51:48;;;;;;;22.80;12.40;;;10.00;99.90;;;;;;5051216;28;20423;-65
2022/11/05 04:54:52;;;;;;;23.50;12.10;;;9.90;99.90;;;;;;5051092;28;20044;-66
2022/11/05 04:57:56;;;;;;;16.38;11.13;;;9.90;99.90;;;;;;5051253;28;20040;-65
2022/11/05 05:01:00;;;;;;;19.33;12.32;;;9.90;99.90;;;;;;5051629;28;20040;-65
2022/11/05 05:04:04;;;;;;;14.60;9.70;;;10.10;99.90;;;;;;5051129;28;20040;-64
2022/11/05 05:07:08;;;;;;;13.32;10.07;;;10.50;99.90;;;;;;5051208;28;20052;-64
2022/11/05 05:10:12;;;;;;;17.75;10.95;;;10.50;99.90;;;;;;5051366;28;20388;-64
2022/11/05 05:13:16;;;;;;;14.88;9.80;;;10.60;99.90;;;;;;5057487;28;20071;-64
2022/11/05 05:16:22;;;;;;;16.88;10.13;;;10.60;99.90;;;;;;5057862;28;20036;-65
2022/11/05 05:19:26;;;;;;;14.98;9.88;;;10.60;99.90;;;;;;5058085;28;20323;-65
2022/11/05 05:22:30;;;;;;;14.52;8.68;;;10.60;99.90;;;;;;5057907;28;20048;-65
2022/11/05 05:25:33;;;;;;;12.68;8.48;;;10.70;99.90;;;;;;5057789;28;20498;-65
2022/11/05 05:28:37;;;;;;;11.30;7.97;;;10.70;99.90;;;;;;5058018;28;20044;-65
2022/11/05 05:31:42;;;;;;;12.10;8.07;;;10.70;99.90;;;;;;5057773;28;20052;-64
2022/11/05 05:34:45;;;;;;;11.75;7.88;;;10.60;99.90;;;;;;5057753;28;20044;-64
2022/11/05 05:37:54;;;;;;;17.42;8.05;;;10.60;99.90;;;;;;5057903;28;20380;-65
2022/11/05 05:40:59;;;;;;;13.60;8.13;;;10.60;99.90;;;;;;5057233;28;20043;-64
2022/11/05 05:44:05;;;;;;;13.27;7.25;;;10.50;99.90;;;;;;5057653;28;20617;-65
2022/11/05 05:47:08;;;;;;;10.32;7.57;;;10.50;99.90;;;;;;5057874;28;20055;-65
2022/11/05 05:50:13;;;;;;;12.23;7.93;;;10.50;99.90;;;;;;5057907;28;20064;-65
2022/11/05 05:53:16;;;;;;;15.52;7.60;;;10.50;99.90;;;;;;5057485;28;20048;-65
2022/11/05 05:56:20;;;;;;;11.50;7.65;;;10.50;99.90;;;;;;5058019;28;20502;-65
2022/11/05 05:59:24;;;;;;;11.30;7.90;;;10.50;99.90;;;;;;5057782;28;20040;-65
2022/11/05 06:02:30;;;;;;;15.50;7.18;;;10.50;99.90;;;;;;5057526;28;20518;-65
2022/11/05 06:05:34;;;;;;;11.63;6.68;;;10.50;99.90;;;;;;5057464;28;20091;-65
2022/11/05 06:08:38;;;;;;;11.23;6.53;;;10.60;99.90;;;;;;5057569;28;20044;-64
2022/11/05 06:11:42;;;;;;;12.18;5.95;;;10.60;99.90;;;;;;5057744;28;20506;-63
2022/11/05 06:14:46;;;;;;;9.55;5.75;;;10.70;99.90;;;;;;5056879;28;20388;-65
2022/11/05 06:17:50;;;;;;;9.27;5.30;;;10.80;99.90;;;;;;5057470;28;20036;-65
2022/11/05 06:20:55;;;;;;;8.45;5.20;;;10.90;99.90;;;;;;5057594;28;20047;-65
2022/11/05 06:24:00;;;;;;;6.43;4.70;;;10.90;99.90;;;;;;5055114;28;20406;-65
2022/11/05 06:27:04;;;;;;;9.07;4.82;;;11.00;99.90;;;;;;5054237;28;20056;-65
2022/11/05 06:30:09;;;;;;;5.45;3.92;;;11.10;99.90;;;;;;5054496;28;20063;-64
2022/11/05 06:33:13;;;;;;;9.85;4.18;;;11.10;99.90;;;;;;5053842;28;20048;-65
2022/11/05 06:36:18;;;;;;;7.10;3.88;;;11.20;99.90;;;;;;5054526;28;20056;-65
2022/11/05 06:39:22;;;;;;;6.03;3.40;;;11.20;99.90;;;;;;5054257;28;20083;-65
2022/11/05 06:42:26;;;;;;;9.18;3.10;;;11.30;99.90;;;;;;5053891;28;20064;-64
2022/11/05 06:45:30;;;;;;;5.22;3.22;;;11.30;99.90;;;;;;5053937;28;20047;-65
2022/11/05 06:48:34;;;;;;;5.00;2.70;;;11.40;99.90;;;;;;5053883;28;20044;-65
2022/11/05 06:51:38;;;;;;;4.80;2.47;;;11.40;99.90;;;;;;5051831;28;20047;-64
2022/11/05 06:54:43;;;;;;;3.38;2.25;;;11.50;99.90;;;;;;5052906;28;20412;-65
2022/11/05 06:57:47;;;;;;;6.38;3.00;;;11.70;99.90;;;;;;5052927;28;20043;-64
2022/11/05 07:00:51;;;;;;;7.00;2.30;;;11.70;99.90;;;;;;5053392;28;20048;-64
2022/11/05 07:03:55;;;;;;;8.35;2.13;;;11.80;99.90;;;;;;5052724;28;20052;-65
2022/11/05 07:06:59;;;;;;;4.57;1.80;;;11.90;99.90;;;;;;5053240;28;20052;-65
2022/11/05 07:10:06;;;;;;;7.65;2.10;;;11.90;99.90;;;;;;5053227;28;20056;-64
2022/11/05 07:13:10;;;;;;;3.80;1.60;;;11.90;99.90;;;;;;5052766;28;20052;-65
2022/11/05 07:16:14;;;;;;;8.63;1.75;;;11.90;99.90;;;;;;5053081;28;20040;-65
2022/11/05 07:19:18;;;;;;;2.75;1.55;;;11.90;99.90;;;;;;5053103;28;20483;-64
2022/11/05 07:22:22;;;;;;;4.95;1.73;;;11.90;99.90;;;;;;5053028;28;20050;-65
2022/11/05 07:25:26;;;;;;;3.50;1.40;;;12.00;99.90;;;;;;5052433;28;20064;-65
2022/11/05 07:28:31;;;;;;;6.82;1.63;;;12.30;99.90;;;;;;5052908;28;20052;-64
2022/11/05 07:31:35;;;;;;;4.88;1.50;;;12.50;99.90;;;;;;5052804;28;20055;-66
2022/11/05 07:34:39;;;;;;;4.57;1.33;;;12.70;99.90;;;;;;5051555;28;20044;-66
2022/11/05 07:37:44;;;;;;;4.30;1.25;;;13.00;99.90;;;;;;5052687;28;20372;-65
2022/11/05 07:40:48;;;;;;;4.20;1.20;;;13.10;99.90;;;;;;5052621;28;20104;-66
2022/11/05 07:43:52;;;;;;;3.45;1.15;;;13.40;99.90;;;;;;5052191;28;20494;-65
2022/11/05 07:46:56;;;;;;;4.88;1.20;;;13.70;99.90;;;;;;5052454;28;20052;-65
2022/11/05 07:50:00;;;;;;;5.78;1.30;;;13.80;99.90;;;;;;5051981;28;20518;-66
2022/11/05 07:53:14;;;;;;;3.70;0.98;;;14.00;99.90;;;;;;5052060;28;20044;-67
2022/11/05 07:56:18;;;;;;;3.08;1.17;;;14.00;99.90;;;;;;5052172;28;20044;-65
2022/11/05 07:59:22;;;;;;;2.25;1.00;;;14.20;99.90;;;;;;5051964;28;20040;-66
2022/11/05 08:02:26;;;;;;;5.50;1.20;;;14.60;99.90;;;;;;5052274;28;20040;-66
2022/11/05 08:05:33;;;;;;;3.67;1.10;;;14.70;99.90;;;;;;5051584;28;20044;-65
2022/11/05 08:08:37;;;;;;;2.72;0.93;;;15.00;99.90;;;;;;5051997;28;20043;-65
2022/11/05 08:11:41;;;;;;;4.05;1.00;;;15.40;99.90;;;;;;5051850;28;20044;-66
2022/11/05 08:14:45;;;;;;;3.28;0.82;;;16.50;99.90;;;;;;5050982;28;20111;-66
2022/11/05 08:17:49;;;;;;;2.90;0.82;;;18.10;99.90;;;;;;5052055;28;20060;-65
2022/11/05 08:20:53;;;;;;;2.85;0.80;;;18.00;99.90;;;;;;5051884;28;20048;-65
2022/11/05 08:23:57;;;;;;;4.20;0.90;;;17.30;99.90;;;;;;5051245;28;20055;-65
2022/11/05 08:27:01;;;;;;;1.48;0.73;;;17.00;99.90;;;;;;5051754;28;20048;-65
2022/11/05 08:30:07;;;;;;;5.43;1.00;;;17.50;99.90;;;;;;5051645;28;20043;-65
2022/11/05 08:33:12;;;;;;;6.20;0.98;;;17.60;99.90;;;;;;5051382;28;20040;-65
2022/11/05 08:36:15;;;;;;;2.83;1.00;;;17.70;99.90;;;;;;5051586;28;20052;-65
2022/11/05 08:39:20;;;;;;;3.20;0.85;;;17.80;99.90;;;;;;5051155;28;20044;-66
2022/11/05 08:42:24;;;;;;;5.72;1.20;;;17.80;99.90;;;;;;5051623;28;20072;-65
2022/11/05 08:45:28;;;;;;;2.38;0.77;;;17.30;99.90;;;;;;5050792;28;20048;-65
2022/11/05 08:48:32;;;;;;;3.83;1.08;;;17.70;99.90;;;;;;5051045;28;20052;-66
2022/11/05 08:51:36;;;;;;;3.47;0.80;;;17.60;99.90;;;;;;5051530;28;20059;-65
2022/11/05 08:54:41;;;;;;;3.20;0.90;;;18.40;99.90;;;;;;5050739;28;20055;-65
2022/11/05 08:57:45;;;;;;;4.47;1.23;;;18.60;99.90;;;;;;5051349;28;20048;-65
2022/11/05 09:00:49;;;;;;;3.78;0.98;;;18.70;99.90;;;;;;5050970;28;20495;-65
2022/11/05 09:03:53;;;;;;;1.75;0.80;;;18.60;99.90;;;;;;5038470;28;20044;-64
2022/11/05 09:06:57;;;;;;;2.40;0.85;;;17.50;99.90;;;;;;5038439;28;20056;-64
2022/11/05 09:10:01;;;;;;;5.97;1.38;;;16.50;99.90;;;;;;5050885;28;20040;-65
2022/11/05 09:13:05;;;;;;;4.97;1.13;;;15.80;99.90;;;;;;5050765;28;20395;-65
2022/11/05 09:16:18;;;;;;;5.57;1.33;;;15.40;99.90;;;;;;5050201;28;20052;-65
2022/11/05 09:19:22;;;;;;;4.50;1.58;;;14.90;99.90;;;;;;5051095;28;20045;-64
2022/11/05 09:22:26;;;;;;;5.93;1.85;;;14.90;99.90;;;;;;5050737;28;20048;-64
2022/11/05 09:25:31;;;;;;;2.90;1.00;;;14.80;99.90;;;;;;5050569;28;20048;-65
2022/11/05 09:28:36;;;;;;;7.15;1.05;;;14.80;99.90;;;;;;5050402;28;20460;-64
2022/11/05 09:31:40;;;;;;;2.78;0.88;;;14.90;99.90;;;;;;5050926;28;20044;-66
2022/11/05 09:34:44;;;;;;;7.80;0.93;;;14.90;99.90;;;;;;5050531;28;20059;-64
2022/11/05 09:37:48;;;;;;;3.67;0.80;;;15.00;99.90;;;;;;5050618;28;20077;-65
2022/11/05 09:40:59;;;;;;;4.45;1.00;;;14.90;99.90;;;;;;5050767;28;20040;-65
2022/11/05 09:44:46;;;;;;;1.45;0.90;;;14.70;99.90;;;;;;5050215;28;20056;-66
2022/11/05 09:47:59;;;;;;;2.85;0.80;;;15.00;99.90;;;;;;5050890;28;20060;-65
2022/11/05 09:51:04;;;;;;;2.97;0.82;;;15.20;99.90;;;;;;5050949;28;20116;-65
2022/11/05 09:54:13;;;;;;;2.35;0.82;;;15.20;99.90;;;;;;5050003;28;20399;-66
2022/11/05 09:57:23;;;;;;;2.55;1.13;;;15.20;99.90;;;;;;5050654;28;20059;-65
2022/11/05 10:00:30;;;;;;;3.22;1.02;;;15.20;99.90;;;;;;5054251;28;20052;-65
2022/11/05 10:03:41;;;;;;;2.67;0.63;;;16.50;99.90;;;;;;5054008;28;20048;-66
2022/11/05 10:06:49;;;;;;;;;;;19.90;99.90;;;;;;5053997;28;20387;-65
2022/11/05 10:09:59;;;;;;;2.35;0.60;;;23.70;99.90;;;;;;5054423;28;19913;-66
2022/11/05 10:13:21;;;;;;;1.75;0.60;;;26.60;96.20;;;;;;5054150;28;20044;-66
2022/11/05 10:16:26;;;;;;;1.10;0.50;;;26.50;94.70;;;;;;5054225;28;20052;-66
2022/11/05 10:19:42;;;;;;;0.65;0.30;;;25.50;94.50;;;;;;5054259;28;20052;-66
2022/11/05 10:22:47;;;;;;;1.33;0.40;;;24.30;95.50;;;;;;5054011;28;20040;-66
2022/11/05 10:25:55;;;;;;;1.95;0.30;;;25.60;95.50;;;;;;5054285;28;20060;-65
2022/11/05 10:29:01;;;;;;;1.58;0.57;;;25.90;94.50;;;;;;5053807;28;20514;-66
2022/11/05 10:32:06;;;;;;;2.13;0.68;;;25.80;94.40;;;;;;5053889;28;20040;-65
2022/11/05 10:35:17;;;;;;;0.90;0.40;;;24.20;95.60;;;;;;5053339;28;20059;-66
2022/11/05 10:38:21;;;;;;;5.03;0.70;;;22.50;97.10;;;;;;5053644;28;20040;-66
2022/11/05 10:41:25;;;;;;;1.63;0.40;;;20.80;99.20;;;;;;5053875;28;20274;-65
2022/11/05 10:44:55;;;;;;;1.13;0.60;;;19.40;99.90;;;;;;5053039;28;20519;-66
2022/11/05 10:48:22;;;;;;;1.80;0.60;;;18.80;99.90;;;;;;5053383;28;20048;-66
2022/11/05 10:51:28;;;;;;;1.17;0.65;;;20.90;99.90;;;;;;5053395;28;20424;-66
2022/11/05 10:54:34;;;;;;;2.45;0.70;;;21.30;99.40;;;;;;5052663;28;20048;-65
2022/11/05 10:57:39;;;;;;;1.05;0.47;;;20.10;99.90;;;;;;5053131;28;20046;-65
2022/11/05 11:00:59;;;;;;;3.03;0.80;;;18.90;99.90;;;;;;5053249;28;20060;-65
2022/11/05 11:04:15;;;;;;;1.50;0.60;;;18.20;99.90;;;;;;5053020;28;20048;-66
2022/11/05 11:07:22;;;;;;;1.73;0.68;;;19.40;99.90;;;;;;5052595;28;20044;-66
2022/11/05 11:10:27;;;;;;;3.42;0.57;;;22.90;99.90;;;;;;5051942;28;20048;-67
2022/11/05 11:13:57;;;;;;;1.73;0.60;;;24.30;97.60;;;;;;5052416;28;20396;-67
2022/11/05 11:17:28;;;;;;;2.95;0.80;;;24.00;96.60;;;;;;5052822;28;20103;-67
2022/11/05 11:20:32;;;;;;;0.82;0.52;;;22.60;97.80;;;;;;5052732;28;20036;-66
2022/11/05 11:23:38;;;;;;;2.70;0.98;;;21.50;98.90;;;;;;5052545;28;20527;-65
2022/11/05 11:26:42;;;;;;;1.67;0.80;;;21.10;98.40;;;;;;5052975;28;20064;-65
2022/11/05 11:29:50;;;;;;;3.60;1.55;;;20.50;99.00;;;;;;5052832;28;20040;-65
2022/11/05 11:32:59;;;;;;;2.83;1.10;;;20.10;99.20;;;;;;5053116;28;20044;-66
2022/11/05 11:36:04;;;;;;;1.65;0.75;;;19.90;99.90;;;;;;5052795;28;20047;-66
2022/11/05 11:39:18;;;;;;;1.83;1.05;;;20.20;99.90;;;;;;5052364;28;20048;-67
2022/11/05 11:42:35;;;;;;;3.05;1.38;;;23.50;99.50;;;;;;5052616;28;20048;-67
2022/11/05 11:45:48;;;;;;;2.35;0.80;;;26.20;95.70;;;;;;5052271;28;20059;-68
2022/11/05 11:48:52;;;;;;;2.15;0.70;;;28.80;93.60;;;;;;5052520;28;20036;-66
2022/11/05 11:52:08;;;;;;;1.10;0.50;;;30.60;91.40;;;;;;5052400;28;20040;-65
2022/11/05 11:55:12;;;;;;;2.25;0.60;;;32.00;87.70;;;;;;5051919;28;20044;-66
2022/11/05 11:58:16;;;;;;;0.73;0.40;;;32.10;84.40;;;;;;5052209;28;20044;-67
2022/11/05 12:01:35;;;;;;;0.70;0.50;;;32.50;84.00;;;;;;5052372;28;20040;-66
2022/11/05 12:04:54;;;;;;;1.42;0.40;;;32.70;81.70;;;;;;5051680;28;20511;-66
2022/11/05 12:08:17;;;;;;;1.80;0.65;;;31.60;80.60;;;;;;5052327;28;20048;-66
2022/11/05 12:11:28;;;;;;;3.47;0.40;;;31.30;82.20;;;;;;5052191;28;20487;-66
2022/11/05 12:14:42;;;;;;;3.97;0.70;;;31.10;79.30;;;;;;5051238;28;20064;-67
2022/11/05 12:17:58;;;;;;;1.63;0.55;;;30.80;78.30;;;;;;5052018;28;20048;-66
2022/11/05 12:21:13;;;;;;;6.43;0.73;;;30.20;80.50;;;;;;5051704;28;20060;-66
2022/11/05 12:24:58;;;;;;;2.50;0.40;;;29.80;79.30;;;;;;5051410;28;20044;-65
2022/11/05 12:28:12;;;;;;;2.30;0.60;;;28.90;80.20;;;;;;5056579;28;20048;-66
2022/11/05 12:31:56;;;;;;;1.55;0.75;;;29.00;81.30;;;;;;5039481;28;20044;-66
2022/11/05 12:35:31;;;;;;;4.22;1.65;;;28.10;82.00;;;;;;5053674;28;20526;-65
2022/11/05 12:38:50;;;;;;;1.45;0.70;;;26.80;81.70;;;;;;5045909;28;20040;-65
2022/11/05 12:42:00;;;;;;;3.50;0.85;;;25.70;84.20;;;;;;5039505;28;20048;-65
2022/11/05 12:45:24;;;;;;;1.15;0.60;;;24.40;85.80;;;;;;5048463;28;20051;-66
2022/11/05 12:49:06;;;;;;;2.88;0.70;;;24.60;85.80;;;;;;5041128;28;20048;-65
2022/11/05 12:52:35;;;;;;;2.35;0.63;;;25.10;86.90;;;;;;5021098;28;20555;-65
2022/11/05 12:55:43;;;;;;;2.75;0.60;;;26.90;84.40;;;;;;5046171;28;20052;-64
2022/11/05 12:59:01;;;;;;;3.58;0.80;;;27.60;82.00;;;;;;5051538;28;20044;-65
2022/11/05 13:02:27;;;;;;;2.35;0.70;;;26.30;83.50;;;;;;5050405;28;20059;-65
2022/11/05 13:05:39;;;;;;;1.85;0.68;;;27.30;82.70;;;;;;5050293;28;20055;-65
2022/11/05 13:09:00;;;;;;;3.45;2.00;;;27.00;81.70;;;;;;5051168;28;20036;-65
2022/11/05 13:12:09;;;;;;;4.63;0.63;;;26.00;82.90;;;;;;5050930;28;20401;-66
2022/11/05 13:15:19;;;;;;;0.93;0.60;;;26.80;82.20;;;;;;5050358;28;20048;-65
2022/11/05 13:18:40;;;;;;;1.15;0.60;;;27.70;79.30;;;;;;5051048;28;20040;-66
2022/11/05 13:21:59;;;;;;;2.00;0.52;;;29.30;79.50;;;;;;5051195;28;20048;-65
2022/11/05 13:25:30;;;;;;;2.00;0.73;;;29.60;77.60;;;;;;5050356;28;20047;-66
2022/11/05 13:28:58;;;;;;;1.98;0.63;;;29.70;77.40;;;;;;5050901;28;20048;-64
2022/11/05 13:32:35;;;;;;;3.35;0.63;;;29.80;77.20;;;;;;5050872;28;20044;-64
2022/11/05 13:39:24;;;;;;;1.20;0.60;;;28.80;76.80;;;;;;5054658;28;20039;-65
2022/11/05 13:43:10;;;;;;;2.45;0.98;;;28.70;77.10;;;;;;5054858;28;20396;-65
2022/11/05 13:46:46;;;;;;;2.75;0.82;;;27.90;77.30;;;;;;5053872;28;20040;-65
2022/11/05 13:50:04;;;;;;;1.85;0.65;;;26.30;78.20;;;;;;5054827;28;20051;-64
2022/11/05 13:53:12;;;;;;;3.75;1.10;;;24.40;80.60;;;;;;5054474;28;20391;-65
2022/11/05 13:56:32;;;;;;;1.40;0.80;;;22.90;83.40;;;;;;5054471;28;20044;-65
2022/11/05 13:59:52;;;;;;;1.65;0.70;;;21.50;86.00;;;;;;5054578;28;20048;-65
2022/11/05 14:03:03;;;;;;;3.60;1.80;;;21.70;85.90;;;;;;5054318;28;20040;-65
2022/11/05 14:06:09;;;;;;;3.13;1.08;;;23.20;84.60;;;;;;5054039;28;20040;-66
2022/11/05 14:09:20;;;;;;;1.63;0.65;;;24.70;82.00;;;;;;5054465;28;20044;-66
2022/11/05 14:12:24;;;;;;;2.70;0.70;;;25.70;80.40;;;;;;5054040;28;20040;-65
2022/11/05 14:15:30;;;;;;;2.42;0.77;;;25.60;79.20;;;;;;5053797;28;20064;-67
2022/11/05 14:18:45;;;;;;;1.52;0.57;;;25.40;78.30;;;;;;5053805;28;20040;-66
2022/11/05 14:21:52;;;;;;;1.75;0.65;;;25.90;78.10;;;;;;5054205;28;20044;-66
2022/11/05 14:24:57;;;;;;;4.90;0.80;;;25.60;78.10;;;;;;5053549;28;20044;-65
2022/11/05 14:28:01;;;;;;;1.42;0.90;;;24.90;77.50;;;;;;5053857;28;20143;-66
2022/11/05 14:31:17;;;;;;;2.47;0.70;;;24.60;78.30;;;;;;5053900;28;20511;-66
2022/11/05 14:34:43;;;;;;;2.70;0.70;;;24.90;78.50;;;;;;5053207;28;20119;-66
2022/11/05 14:37:52;;;;;;;2.20;1.00;;;24.30;78.70;;;;;;5053920;28;20047;-65
2022/11/05 14:41:01;;;;;;;2.67;1.25;;;23.80;76.20;;;;;;5053866;28;20036;-65
2022/11/05 14:44:06;;;;;;;1.33;0.95;;;23.60;77.60;;;;;;5052429;28;20048;-66
2022/11/05 14:47:20;;;;;;;1.40;0.80;;;23.10;78.00;;;;;;5053614;28;20064;-65
2022/11/05 14:50:41;;;;;;;1.92;1.00;;;22.80;78.70;;;;;;5053825;28;20060;-65
2022/11/05 14:53:46;;;;;;;1.77;0.47;;;22.30;79.20;;;;;;5053109;28;20047;-66
2022/11/05 14:56:56;;;;;;;1.45;0.40;;;22.20;79.50;;;;;;5053502;28;20410;-66
2022/11/05 15:00:01;;;;;;;1.38;0.38;;;21.80;79.70;;;;;;5053369;28;20052;-65
2022/11/05 15:03:39;;;;;;;3.15;0.43;;;21.40;80.20;;;;;;5053204;28;20040;-66
2022/11/05 15:07:01;;;;;;;1.80;0.65;;;21.40;80.40;;;;;;5053374;28;20051;-66
2022/11/05 15:10:10;;;;;;;1.50;0.45;;;21.30;81.10;;;;;;5052983;28;20036;-66
2022/11/05 15:13:39;;;;;;;1.25;0.47;;;21.00;80.10;;;;;;5052902;28;20044;-66
2022/11/05 15:16:48;;;;;;;1.92;0.40;;;20.60;81.40;;;;;;5052760;28;20044;-65
2022/11/05 15:19:52;;;;;;;2.30;0.70;;;20.20;83.10;;;;;;5053003;28;20522;-65
2022/11/05 15:23:03;;;;;;;1.55;0.60;;;19.70;84.10;;;;;;5053029;28;20044;-65
2022/11/05 15:26:40;;;;;;;1.13;0.43;;;19.20;83.60;;;;;;5053102;28;20036;-66
2022/11/05 15:29:44;;;;;;;2.88;0.70;;;18.80;85.70;;;;;;5052963;28;20491;-64
2022/11/05 15:32:49;;;;;;;1.38;0.80;;;18.40;87.10;;;;;;5052904;28;20048;-64
2022/11/05 15:35:53;;;;;;;2.92;0.40;;;18.10;87.40;;;;;;5052559;28;20259;-65
2022/11/05 15:38:58;;;;;;;1.70;0.60;;;17.80;89.30;;;;;;5052432;28;20403;-65
2022/11/05 15:42:04;;;;;;;3.88;1.70;;;17.40;90.50;;;;;;5052311;28;20099;-65
2022/11/05 15:45:19;;;;;;;5.97;0.45;;;17.10;91.30;;;;;;5051999;28;20052;-65
2022/11/05 15:48:23;;;;;;;2.22;0.88;;;16.50;92.00;;;;;;5052698;28;20044;-66
2022/11/05 15:51:28;;;;;;;2.28;0.90;;;15.90;92.70;;;;;;5052828;28;20380;-66
2022/11/05 15:54:32;;;;;;;3.53;0.68;;;15.30;93.00;;;;;;5051546;28;20052;-65
2022/11/05 15:57:38;;;;;;;3.45;0.85;;;14.80;93.40;;;;;;5052310;28;20040;-66
2022/11/05 16:00:47;;;;;;;1.15;0.60;;;14.50;93.90;;;;;;5052034;28;20056;-66
2022/11/05 16:03:53;;;;;;;1.80;0.70;;;14.30;93.80;;;;;;5051615;28;20032;-66
2022/11/05 16:07:05;;;;;;;0.80;0.50;;;14.10;94.90;;;;;;5051744;28;20043;-66
2022/11/05 16:10:19;;;;;;;2.88;0.63;;;13.90;95.00;;;;;;5052013;28;20044;-66
2022/11/05 16:13:38;;;;;;;1.85;0.55;;;13.70;95.60;;;;;;5051630;28;20044;-65
2022/11/05 16:16:44;;;;;;;0.85;0.60;;;13.50;95.80;;;;;;5051606;28;20036;-65
2022/11/05 16:19:48;;;;;;;1.52;0.60;;;13.30;96.50;;;;;;5051801;28;20044;-65
2022/11/05 16:22:58;;;;;;;1.95;0.52;;;13.20;96.90;;;;;;5051716;28;20048;-65
2022/11/05 16:26:02;;;;;;;1.42;1.00;;;13.10;97.30;;;;;;5051463;28;20384;-65
2022/11/05 16:29:14;;;;;;;3.05;1.10;;;12.90;98.30;;;;;;5051821;28;20503;-66
2022/11/05 16:32:26;;;;;;;14.50;8.80;;;12.80;98.70;;;;;;5051858;28;20039;-66
2022/11/05 16:35:30;;;;;;;8.32;3.42;;;12.70;99.00;;;;;;5051128;28;20063;-65
2022/11/05 16:38:34;;;;;;;4.35;2.13;;;12.60;99.60;;;;;;5051527;28;20135;-65
2022/11/05 16:41:42;;;;;;;10.73;6.60;;;12.50;99.90;;;;;;5051313;28;20044;-65
2022/11/05 16:44:46;;;;;;;51.38;26.25;;;12.50;99.90;;;;;;5051054;28;20388;-65
2022/11/05 16:47:51;;;;;;;17.85;8.10;;;12.40;99.90;;;;;;5051407;28;20051;-66
2022/11/05 16:50:55;;;;;;;8.10;3.28;;;12.40;99.90;;;;;;5051406;28;20052;-67
2022/11/05 16:53:59;;;;;;;106.82;44.28;;;12.30;99.90;;;;;;5050787;28;20039;-65
2022/11/05 16:57:18;;;;;;;50.08;22.50;;;12.30;99.90;;;;;;5051213;28;20051;-65
2022/11/05 17:00:23;;;;;;;87.85;41.30;;;12.30;99.90;;;;;;5051381;28;20044;-65
2022/11/05 17:03:27;;;;;;;21.33;10.05;;;12.20;99.90;;;;;;5051003;28;20048;-65
2022/11/05 17:06:31;;;;;;;5.38;1.13;;;12.10;99.90;;;;;;5050455;28;20391;-65
2022/11/05 17:09:35;;;;;;;4.18;1.00;;;12.10;99.90;;;;;;5050950;28;20048;-66